Airport View

Enter AWOS ICAO identifier for current METAR.

ex. KFNL

KMWN 051250Z COR 27042G49KT 1/8SM FG VV003 09/09 RMK FG INTMT SUN DMLY VSBL

5 Aug 2020 13:12

KHIE 051132Z 0512/0612 25005KT P6SM SCT035 FM051500 24010G17KT P6SM BKN035 FM052300 VRB03KT P6SM FEW250 FM060800 00000KT 1/2SM FG BKN002